Time;durP1;ratioP1;P1;durP2;ratioP2;P2;SDS_P1;SDS_P2;PMS_P1;PMS_P2;Temp;Humidity;BMP_temperature;BMP_pressure;BME280_temperature;BME280_humidity;BME280_pressure;Samples;Min_cycle;Max_cycle;Signal;HPM_P1;HPM_P2
2024/02/25 00:00:03;;;;;;;12.20;6.40;;;;;;;8.54;66.91;98683.98;105114;1258;96609;-80
2024/02/25 00:02:32;;;;;;;9.40;6.50;;;;;;;8.56;66.93;98690.55;105978;1254;109958;-78
2024/02/25 00:05:00;;;;;;;12.60;7.60;;;;;;;8.57;67.03;98694.73;105415;1267;96712;-78
2024/02/25 00:07:28;;;;;;;13.50;7.50;;;;;;;8.57;66.88;98701.95;105653;1266;107540;-78
2024/02/25 00:09:56;;;;;;;12.10;6.90;;;;;;;8.56;66.99;98706.96;105326;1260;96689;-78
2024/02/25 00:12:24;;;;;;;12.20;7.40;;;;;;;8.57;66.92;98712.24;105664;1257;96584;-79
2024/02/25 00:14:52;;;;;;;12.60;6.70;;;;;;;8.57;66.98;98714.88;105658;1255;109869;-75
2024/02/25 00:17:20;;;;;;;12.10;7.50;;;;;;;8.57;67.07;98715.58;105770;1257;96588;-74
2024/02/25 00:19:48;;;;;;;11.20;7.00;;;;;;;8.58;67.06;98709.70;105606;1259;107646;-77
2024/02/25 00:22:17;;;;;;;11.10;6.70;;;;;;;8.58;67.06;98701.04;104769;1266;96609;-79
2024/02/25 00:24:45;;;;;;;11.70;6.90;;;;;;;8.59;67.14;98691.77;105626;1254;96586;-79
2024/02/25 00:27:12;;;;;;;12.30;7.10;;;;;;;8.59;67.09;98685.41;105376;1257;109922;-79
2024/02/25 00:29:40;;;;;;;14.00;7.70;;;;;;;8.59;67.17;98678.01;105458;1256;96619;-79
2024/02/25 00:32:08;;;;;;;13.20;7.70;;;;;;;8.57;66.94;98675.27;105421;1256;105565;-77
2024/02/25 00:34:36;;;;;;;14.80;7.90;;;;;;;8.55;67.13;98673.12;104990;1254;96660;-78
2024/02/25 00:37:04;;;;;;;12.30;7.20;;;;;;;8.54;67.20;98675.50;104827;1256;96596;-78
2024/02/25 00:39:32;;;;;;;15.80;7.60;;;;;;;8.52;67.05;98680.77;107355;1253;110466;-78
2024/02/25 00:42:01;;;;;;;16.20;7.80;;;;;;;8.51;67.24;98680.70;105002;1266;96584;-76
2024/02/25 00:44:34;;;;;;;11.30;6.90;;;;;;;8.51;67.28;98678.23;105684;1270;106583;-78
2024/02/25 00:47:02;;;;;;;13.10;7.00;;;;;;;8.47;67.22;98677.35;104895;1257;96584;-78
2024/02/25 00:49:30;;;;;;;10.70;6.60;;;;;;;8.46;67.35;98676.02;105066;1254;96600;-81
2024/02/25 00:51:59;;;;;;;12.00;7.00;;;;;;;8.44;67.14;98673.36;105599;1257;109874;-79
2024/02/25 00:54:27;;;;;;;14.40;6.70;;;;;;;8.41;67.10;98673.36;104840;1260;96500;-79
2024/02/25 00:56:55;;;;;;;12.20;7.50;;;;;;;8.39;67.01;98674.96;104970;1257;108167;-79
2024/02/25 00:59:23;;;;;;;11.40;6.90;;;;;;;8.37;67.16;98667.86;104897;1256;96752;-78
2024/02/25 01:01:52;;;;;;;9.80;6.10;;;;;;;8.33;67.23;98668.09;105957;1253;96505;-77
2024/02/25 01:04:21;;;;;;;10.90;6.60;;;;;;;8.28;67.36;98664.77;105009;1257;109890;-76
2024/02/25 01:06:49;;;;;;;10.80;7.00;;;;;;;8.27;67.43;98667.48;105445;1257;96584;-78
2024/02/25 01:09:17;;;;;;;11.20;6.60;;;;;;;8.26;67.44;98664.36;104858;1257;108345;-77
2024/02/25 01:11:45;;;;;;;9.20;5.40;;;;;;;8.24;67.56;98662.88;107100;1254;97200;-79
2024/02/25 01:14:14;;;;;;;8.70;5.30;;;;;;;8.24;67.35;98663.77;105116;1258;97414;-79
2024/02/25 01:16:42;;;;;;;7.90;5.20;;;;;;;8.27;67.54;98663.41;108631;1254;109959;-79
2024/02/25 01:19:10;;;;;;;9.00;5.40;;;;;;;8.29;67.62;98663.41;105726;1266;96596;-79
2024/02/25 01:21:38;;;;;;;7.80;5.30;;;;;;;8.31;67.59;98668.92;105073;1258;107599;-79
2024/02/25 01:24:06;;;;;;;11.00;5.70;;;;;;;8.34;67.62;98669.98;104968;1266;96581;-78
2024/02/25 01:26:40;;;;;;;8.50;5.30;;;;;;;8.35;67.60;98670.39;105750;1254;96578;-78
2024/02/25 01:29:08;;;;;;;6.50;4.60;;;;;;;8.38;67.77;98666.16;104929;1255;110631;-79
2024/02/25 01:31:43;;;;;;;8.30;5.00;;;;;;;8.40;67.68;98661.46;105486;1257;97392;-79
2024/02/25 01:34:11;;;;;;;8.80;5.30;;;;;;;8.39;67.71;98666.30;105095;1266;107339;-78
2024/02/25 01:36:41;;;;;;;8.40;5.50;;;;;;;8.39;67.68;98668.55;105174;1260;97525;-79
2024/02/25 01:39:09;;;;;;;9.90;5.60;;;;;;;8.38;67.83;98667.55;105414;1256;96505;-78
2024/02/25 01:41:37;;;;;;;9.60;6.10;;;;;;;8.37;67.83;98668.55;104973;1265;109113;-79
2024/02/25 01:44:05;;;;;;;10.60;5.70;;;;;;;8.34;67.83;98667.70;104958;1254;97393;-77
2024/02/25 01:46:34;;;;;;;9.70;5.80;;;;;;;8.32;67.83;98671.89;105016;1264;108201;-79
2024/02/25 01:49:02;;;;;;;10.60;5.60;;;;;;;8.31;67.85;98670.57;105035;1267;96607;-79
2024/02/25 01:51:31;;;;;;;11.20;5.90;;;;;;;8.28;67.84;98666.83;104907;1266;96587;-78
2024/02/25 01:53:59;;;;;;;11.00;6.80;;;;;;;8.25;67.71;98671.11;105541;1253;108920;-78
2024/02/25 01:56:27;;;;;;;11.10;5.80;;;;;;;8.21;67.68;98672.48;105664;1254;96578;-79
2024/02/25 01:58:56;;;;;;;9.10;5.60;;;;;;;8.15;67.84;98675.88;105378;1254;107735;-80
2024/02/25 02:01:25;;;;;;;9.70;5.50;;;;;;;8.14;67.90;98670.49;105508;1256;96680;-75
2024/02/25 02:03:53;;;;;;;10.10;5.40;;;;;;;8.15;68.03;98659.45;105428;1257;96613;-79
2024/02/25 02:06:21;;;;;;;8.10;4.90;;;;;;;8.17;68.09;98656.44;105602;1256;109343;-74
2024/02/25 02:08:48;;;;;;;7.30;5.00;;;;;;;8.22;68.17;98651.02;105345;1257;96594;-79
2024/02/25 02:11:20;;;;;;;6.20;4.50;;;;;;;8.26;68.20;98643.52;105359;1258;107330;-80
2024/02/25 02:13:49;;;;;;;7.80;4.90;;;;;;;8.27;68.12;98632.98;105599;1254;97502;-79
2024/02/25 02:16:17;;;;;;;6.50;4.60;;;;;;;8.29;68.20;98638.33;105535;1257;96521;-80
2024/02/25 02:18:47;;;;;;;7.20;4.60;;;;;;;8.32;68.25;98636.92;105709;1255;109282;-80
2024/02/25 02:21:17;;;;;;;7.30;5.00;;;;;;;8.36;68.18;98634.49;105675;1257;96680;-79
2024/02/25 02:23:46;;;;;;;7.00;5.00;;;;;;;8.40;68.27;98639.02;105114;1256;107758;-78
2024/02/25 02:26:14;;;;;;;6.50;4.60;;;;;;;8.42;68.20;98634.99;105120;1270;96617;-79
2024/02/25 02:28:42;;;;;;;6.80;4.50;;;;;;;8.43;68.33;98633.64;105234;1254;96507;-78
2024/02/25 02:31:10;;;;;;;6.70;4.80;;;;;;;8.45;68.22;98633.34;105192;1256;109945;-79
2024/02/25 02:33:38;;;;;;;6.90;4.50;;;;;;;8.46;68.27;98632.89;105718;1257;97051;-79
2024/02/25 02:36:07;;;;;;;8.60;5.10;;;;;;;8.48;68.28;98632.26;105250;1257;107672;-80
2024/02/25 02:38:35;;;;;;;7.90;5.30;;;;;;;8.49;68.31;98625.33;105683;1262;96637;-81
2024/02/25 02:41:03;;;;;;;8.20;5.10;;;;;;;8.49;68.25;98620.35;105511;1258;97559;-78
2024/02/25 02:43:31;;;;;;;6.80;4.70;;;;;;;8.50;68.34;98621.02;104660;1264;109833;-78
2024/02/25 02:46:09;;;;;;;8.20;5.20;;;;;;;8.52;68.29;98622.83;105465;1252;96724;-80
2024/02/25 02:48:37;;;;;;;9.50;5.00;;;;;;;8.53;68.26;98623.25;105247;1257;107660;-80
2024/02/25 02:51:06;;;;;;;8.90;5.20;;;;;;;8.55;68.22;98620.15;105530;1254;96677;-79
2024/02/25 02:53:33;;;;;;;7.60;5.10;;;;;;;8.56;68.32;98619.70;105524;1255;96558;-78
2024/02/25 02:56:01;;;;;;;6.60;4.70;;;;;;;8.57;68.27;98617.64;104898;1254;109878;-79
2024/02/25 02:58:29;;;;;;;8.00;4.80;;;;;;;8.59;68.37;98615.40;104903;1255;96665;-78
2024/02/25 03:00:57;;;;;;;8.00;4.60;;;;;;;8.61;68.30;98615.27;104932;1266;108163;-79
2024/02/25 03:03:25;;;;;;;6.70;4.30;;;;;;;8.62;68.20;98613.96;105491;1258;96600;-78
2024/02/25 03:05:53;;;;;;;7.50;5.00;;;;;;;8.62;68.39;98612.89;105101;1260;96530;-79
2024/02/25 03:08:21;;;;;;;6.00;4.80;;;;;;;8.64;68.45;98610.66;105238;1259;110519;-77
2024/02/25 03:10:49;;;;;;;6.40;4.40;;;;;;;8.63;68.48;98617.58;105688;1257;97147;-80
2024/02/25 03:13:17;;;;;;;8.50;4.80;;;;;;;8.63;68.61;98626.42;104833;1267;107747;-79
2024/02/25 03:15:45;;;;;;;6.70;4.40;;;;;;;8.62;68.45;98633.77;105039;1257;96590;-80
2024/02/25 03:18:13;;;;;;;7.80;4.60;;;;;;;8.61;68.58;98641.39;105003;1269;97832;-80
2024/02/25 03:20:42;;;;;;;6.60;5.10;;;;;;;8.62;68.53;98647.04;105428;1253;108324;-79
2024/02/25 03:23:10;;;;;;;6.80;4.10;;;;;;;8.62;68.55;98648.42;104988;1257;96643;-79
2024/02/25 03:25:38;;;;;;;6.90;4.50;;;;;;;8.61;68.52;98646.88;104948;1257;107945;-77
2024/02/25 03:28:06;;;;;;;6.10;4.50;;;;;;;8.61;68.58;98648.70;104989;1255;96591;-80
2024/02/25 03:30:34;;;;;;;7.10;4.70;;;;;;;8.60;68.55;98651.77;105548;1254;96628;-79
2024/02/25 03:33:02;;;;;;;7.60;4.70;;;;;;;8.60;68.65;98653.84;105616;1256;109733;-78
2024/02/25 03:35:32;;;;;;;5.60;4.20;;;;;;;8.57;68.63;98659.55;104960;1258;96667;-76
2024/02/25 03:38:02;;;;;;;6.70;4.80;;;;;;;8.52;68.53;98660.64;105503;1257;109245;-79
2024/02/25 03:40:30;;;;;;;6.90;4.40;;;;;;;8.49;68.58;98657.46;105425;1258;96604;-78
2024/02/25 03:42:57;;;;;;;6.70;4.20;;;;;;;8.48;68.73;98659.46;104965;1256;97393;-78
2024/02/25 03:45:25;;;;;;;8.40;4.30;;;;;;;8.47;68.57;98663.23;104910;1256;109899;-78
2024/02/25 03:47:53;;;;;;;6.60;3.90;;;;;;;8.44;68.66;98668.02;104934;1256;96698;-82
2024/02/25 03:50:21;;;;;;;7.00;4.60;;;;;;;8.41;68.71;98667.57;105082;1257;108250;-75
2024/02/25 03:52:49;;;;;;;5.10;3.60;;;;;;;8.35;68.67;98670.21;105163;1267;96585;-78
2024/02/25 03:55:18;;;;;;;5.70;3.80;;;;;;;8.30;68.70;98670.98;104975;1268;97531;-80
2024/02/25 03:57:45;;;;;;;6.40;4.30;;;;;;;8.23;68.58;98675.84;105709;1254;109563;-75
2024/02/25 04:00:14;;;;;;;7.00;4.80;;;;;;;8.16;68.51;98680.39;105146;1258;97429;-81
2024/02/25 04:02:45;;;;;;;6.20;4.50;;;;;;;8.12;68.73;98685.63;105094;1266;107616;-78
2024/02/25 04:05:14;;;;;;;6.90;4.70;;;;;;;8.11;68.82;98684.13;105615;1256;97403;-79
2024/02/25 04:07:43;;;;;;;6.00;4.00;;;;;;;8.10;68.57;98689.63;105501;1257;96616;-75
2024/02/25 04:10:11;;;;;;;8.00;4.30;;;;;;;8.10;68.85;98683.95;104803;1257;110301;-79
2024/02/25 04:12:43;;;;;;;7.20;4.20;;;;;;;8.12;68.90;98686.48;105596;1265;96599;-73
2024/02/25 04:15:13;;;;;;;7.00;5.10;;;;;;;8.13;68.79;98678.16;105333;1253;106557;-78
2024/02/25 04:17:41;;;;;;;6.90;4.80;;;;;;;8.12;68.90;98677.11;105647;1254;97806;-80
2024/02/25 04:20:10;;;;;;;7.70;4.50;;;;;;;8.12;68.92;98673.64;105157;1257;97937;-79
2024/02/25 04:22:38;;;;;;;6.70;4.50;;;;;;;8.11;69.02;98674.95;105050;1257;109833;-79
2024/02/25 04:25:06;;;;;;;6.30;4.00;;;;;;;8.10;68.99;98674.81;104878;1264;96513;-80
2024/02/25 04:27:34;;;;;;;6.90;4.30;;;;;;;8.10;69.01;98672.17;104927;1257;108573;-78
2024/02/25 04:30:03;;;;;;;7.20;4.80;;;;;;;8.10;69.04;98671.13;105036;1275;98218;-79
2024/02/25 04:32:31;;;;;;;5.70;4.10;;;;;;;8.07;69.08;98674.63;104955;1256;96667;-78
2024/02/25 04:34:59;;;;;;;8.10;4.90;;;;;;;8.06;69.04;98670.85;105626;1253;109580;-79
2024/02/25 04:37:27;;;;;;;6.80;4.00;;;;;;;8.05;69.04;98667.21;105421;1253;97486;-79
2024/02/25 04:39:54;;;;;;;5.60;3.90;;;;;;;8.06;69.12;98664.48;105660;1256;107707;-79
2024/02/25 04:42:22;;;;;;;7.10;4.00;;;;;;;8.07;69.13;98663.17;105682;1253;96593;-78
2024/02/25 04:44:50;;;;;;;6.20;4.00;;;;;;;8.07;69.15;98658.25;105495;1256;97791;-78
2024/02/25 04:47:18;;;;;;;6.50;4.30;;;;;;;8.06;69.12;98660.94;104775;1257;109995;-78
2024/02/25 04:49:47;;;;;;;7.10;4.60;;;;;;;8.05;69.34;98658.86;105004;1267;97205;-78
2024/02/25 04:52:15;;;;;;;5.00;3.60;;;;;;;8.06;69.24;98655.46;104851;1257;107576;-79
2024/02/25 04:54:43;;;;;;;5.70;4.10;;;;;;;8.06;69.26;98659.70;105036;1254;96524;-77
2024/02/25 04:57:13;;;;;;;6.40;4.00;;;;;;;8.06;69.23;98662.36;105376;1254;96594;-78
2024/02/25 04:59:42;;;;;;;5.70;3.60;;;;;;;8.08;69.25;98667.51;104953;1256;109788;-79
2024/02/25 05:02:10;;;;;;;6.30;4.10;;;;;;;8.12;69.18;98675.19;105572;1253;96591;-78
2024/02/25 05:04:40;;;;;;;5.80;3.80;;;;;;;8.15;69.23;98673.05;105209;1253;106129;-80
2024/02/25 05:07:08;;;;;;;5.30;3.70;;;;;;;8.19;69.22;98676.80;105293;1258;96619;-79
2024/02/25 05:09:36;;;;;;;6.50;3.60;;;;;;;8.23;69.46;98671.97;105534;1257;96533;-76
2024/02/25 05:12:05;;;;;;;6.00;4.00;;;;;;;8.26;69.29;98676.70;105413;1256;109902;-79
2024/02/25 05:14:32;;;;;;;4.70;3.30;;;;;;;8.27;69.51;98676.44;104734;1254;97928;-79
2024/02/25 05:17:01;;;;;;;6.20;3.70;;;;;;;8.29;69.35;98679.82;105180;1256;107991;-79
2024/02/25 05:19:29;;;;;;;5.10;3.80;;;;;;;8.32;69.47;98679.51;104932;1257;96630;-79
2024/02/25 05:21:57;;;;;;;5.60;4.30;;;;;;;8.34;69.48;98683.23;104947;1254;96677;-79
2024/02/25 05:24:25;;;;;;;5.90;4.30;;;;;;;8.35;69.33;98684.92;105006;1253;109490;-78
2024/02/25 05:26:53;;;;;;;5.60;3.60;;;;;;;8.35;69.41;98690.20;104960;1256;96591;-78
2024/02/25 05:29:21;;;;;;;5.70;3.70;;;;;;;8.35;69.43;98694.48;104983;1266;107461;-75
2024/02/25 05:31:49;;;;;;;4.70;3.70;;;;;;;8.34;69.42;98704.05;105511;1256;96685;-79
2024/02/25 05:34:17;;;;;;;7.60;4.00;;;;;;;8.33;69.46;98706.61;105585;1261;96632;-80
2024/02/25 05:36:45;;;;;;;5.20;4.10;;;;;;;8.32;69.55;98709.14;105725;1253;109561;-78
2024/02/25 05:39:13;;;;;;;5.80;3.90;;;;;;;8.33;69.54;98715.13;105183;1253;97983;-77
2024/02/25 05:41:41;;;;;;;6.20;4.20;;;;;;;8.33;69.54;98713.46;105272;1256;107756;-79
2024/02/25 05:44:11;;;;;;;6.40;4.30;;;;;;;8.33;69.69;98709.09;105215;1257;96667;-80
2024/02/25 05:46:39;;;;;;;5.60;3.90;;;;;;;8.33;69.68;98710.68;105128;1253;96581;-78
2024/02/25 05:49:07;;;;;;;6.70;3.60;;;;;;;8.32;69.51;98708.95;105045;1254;110413;-79
2024/02/25 05:51:35;;;;;;;7.60;4.20;;;;;;;8.32;69.68;98712.17;105365;1257;96876;-79
2024/02/25 05:54:03;;;;;;;5.00;3.30;;;;;;;8.32;69.78;98714.27;105493;1256;108398;-80
2024/02/25 05:56:31;;;;;;;5.30;3.60;;;;;;;8.31;69.75;98709.55;105008;1256;97852;-79
2024/02/25 05:58:59;;;;;;;5.40;3.60;;;;;;;8.32;69.73;98705.25;105158;1256;96575;-76
2024/02/25 06:01:33;;;;;;;5.70;3.60;;;;;;;8.33;69.82;98707.83;105377;1256;110611;-80
2024/02/25 06:04:03;;;;;;;6.10;3.80;;;;;;;8.34;69.89;98709.03;105700;1253;96585;-78
2024/02/25 06:06:31;;;;;;;5.90;3.90;;;;;;;8.34;69.93;98710.39;104912;1267;107721;-77
2024/02/25 06:09:00;;;;;;;5.80;3.90;;;;;;;8.35;69.97;98710.20;106244;1256;96757;-79
2024/02/25 06:11:28;;;;;;;5.50;3.90;;;;;;;8.34;69.76;98712.00;105012;1253;97713;-79
2024/02/25 06:13:56;;;;;;;6.50;4.20;;;;;;;8.34;69.90;98717.31;105594;1256;110450;-79
2024/02/25 06:16:24;;;;;;;6.60;4.00;;;;;;;8.34;69.96;98718.74;105362;1257;96513;-78
2024/02/25 06:18:52;;;;;;;6.00;3.80;;;;;;;8.33;69.93;98722.15;105111;1257;107976;-79
2024/02/25 06:21:20;;;;;;;6.10;4.10;;;;;;;8.32;69.93;98724.50;105050;1258;96690;-79
2024/02/25 06:23:48;;;;;;;5.80;3.80;;;;;;;8.30;69.93;98730.84;105260;1256;96583;-76
2024/02/25 06:26:16;;;;;;;5.40;3.60;;;;;;;8.29;70.06;98729.31;105191;1256;109345;-79
2024/02/25 06:28:44;;;;;;;5.00;3.80;;;;;;;8.30;69.92;98729.59;105181;1269;96695;-79
2024/02/25 06:31:12;;;;;;;5.40;3.80;;;;;;;8.29;70.02;98727.70;105618;1254;108261;-74
2024/02/25 06:33:40;;;;;;;6.30;4.10;;;;;;;8.29;70.04;98730.71;104648;1256;96712;-80
2024/02/25 06:36:19;;;;;;;5.10;3.80;;;;;;;8.30;70.21;98731.02;105380;1253;96574;-80
2024/02/25 06:38:47;;;;;;;4.60;3.20;;;;;;;8.30;70.12;98735.06;104834;1257;109908;-78
2024/02/25 06:41:23;;;;;;;6.20;4.50;;;;;;;8.29;69.98;98733.01;104901;1264;96590;-77
2024/02/25 06:43:54;;;;;;;6.10;3.80;;;;;;;8.32;70.10;98737.08;104947;1257;106824;-79
2024/02/25 06:46:22;;;;;;;7.20;3.80;;;;;;;8.34;70.17;98737.31;104883;1269;96622;-78
2024/02/25 06:48:50;;;;;;;7.10;4.00;;;;;;;8.35;70.22;98734.70;105641;1256;96604;-80
2024/02/25 06:51:27;;;;;;;5.90;4.10;;;;;;;8.37;70.21;98729.50;105522;1254;110526;-78
2024/02/25 06:53:55;;;;;;;5.90;4.00;;;;;;;8.40;70.19;98728.25;104781;1256;96696;-81
2024/02/25 06:56:23;;;;;;;4.90;3.70;;;;;;;8.42;70.36;98727.73;104993;1266;107581;-79
2024/02/25 06:58:51;;;;;;;5.00;3.70;;;;;;;8.45;70.37;98727.52;104943;1269;96587;-80
2024/02/25 07:01:19;;;;;;;7.20;3.80;;;;;;;8.47;70.29;98724.91;105620;1253;96698;-74
2024/02/25 07:03:49;;;;;;;5.90;4.00;;;;;;;8.50;70.24;98728.29;105483;1256;109486;-73
2024/02/25 07:06:17;;;;;;;6.30;3.80;;;;;;;8.53;70.29;98736.91;105613;1256;97547;-74
2024/02/25 07:08:46;;;;;;;5.60;4.30;;;;;;;8.55;70.33;98733.77;105649;1266;107711;-73
2024/02/25 07:11:18;;;;;;;5.90;3.80;;;;;;;8.57;70.46;98734.66;105585;1256;96596;-73
2024/02/25 07:13:48;;;;;;;6.50;3.80;;;;;;;8.59;70.49;98738.09;105514;1257;96584;-73
2024/02/25 07:16:16;;;;;;;5.10;3.80;;;;;;;8.60;70.39;98729.66;105689;1256;111293;-73
2024/02/25 07:18:44;;;;;;;5.90;3.80;;;;;;;8.62;70.51;98728.83;105529;1257;96644;-72
2024/02/25 07:21:14;;;;;;;6.30;3.70;;;;;;;8.66;70.39;98730.55;105575;1254;107280;-73
2024/02/25 07:23:42;;;;;;;6.60;4.20;;;;;;;8.67;70.44;98728.87;105435;1254;98452;-73
2024/02/25 07:26:12;;;;;;;4.80;3.90;;;;;;;8.69;70.38;98728.76;105513;1256;96636;-73
2024/02/25 07:28:41;;;;;;;4.60;3.60;;;;;;;8.72;70.51;98728.49;105605;1256;109875;-74
2024/02/25 07:31:16;;;;;;;6.00;4.40;;;;;;;8.75;70.50;98727.61;105511;1256;96596;-72
2024/02/25 07:33:47;;;;;;;6.90;4.30;;;;;;;8.78;70.61;98727.88;105322;1256;106766;-74
2024/02/25 07:36:17;;;;;;;7.80;4.40;;;;;;;8.85;70.63;98732.03;105614;1254;97566;-74
2024/02/25 07:38:44;;;;;;;7.00;4.20;;;;;;;8.90;70.69;98734.30;105312;1257;96610;-71
2024/02/25 07:41:13;;;;;;;6.30;3.90;;;;;;;8.96;70.73;98734.61;105540;1256;109456;-73
2024/02/25 07:43:41;;;;;;;7.40;4.10;;;;;;;9.00;70.68;98735.93;105468;1254;97388;-74
2024/02/25 07:46:09;;;;;;;6.60;3.90;;;;;;;9.05;70.66;98743.83;105582;1256;107069;-73
2024/02/25 07:48:42;;;;;;;8.30;4.50;;;;;;;9.11;70.64;98741.36;105353;1257;96682;-72
2024/02/25 07:51:10;;;;;;;6.00;4.10;;;;;;;9.16;70.63;98734.46;105428;1256;98542;-73
2024/02/25 07:53:38;;;;;;;9.70;4.90;;;;;;;9.20;70.71;98737.31;105835;1257;110330;-73
2024/02/25 07:56:06;;;;;;;6.40;3.80;;;;;;;9.27;70.79;98734.33;105412;1259;96600;-73
2024/02/25 07:58:36;;;;;;;7.60;4.30;;;;;;;9.37;70.80;98733.05;105539;1256;107460;-73
2024/02/25 08:01:04;;;;;;;6.90;4.40;;;;;;;9.50;70.96;98732.48;105527;1256;96541;-73
2024/02/25 08:03:32;;;;;;;7.50;4.40;;;;;;;9.60;70.89;98730.39;105845;1254;96507;-73
2024/02/25 08:06:00;;;;;;;6.00;4.10;;;;;;;9.67;70.97;98728.76;105486;1256;109934;-72
2024/02/25 08:08:28;;;;;;;5.80;3.90;;;;;;;9.73;70.94;98725.66;105748;1256;96674;-82
2024/02/25 08:10:56;;;;;;;6.10;4.30;;;;;;;9.77;70.85;98720.61;105678;1253;105895;-81
2024/02/25 08:13:24;;;;;;;7.20;4.10;;;;;;;9.81;70.82;98719.43;105465;1254;96593;-73
2024/02/25 08:15:52;;;;;;;6.60;3.60;;;;;;;9.87;70.92;98713.30;105821;1254;96584;-73
2024/02/25 08:18:20;;;;;;;5.50;3.70;;;;;;;9.92;70.91;98712.77;105531;1253;109950;-73
2024/02/25 08:20:48;;;;;;;6.00;3.70;;;;;;;9.97;70.89;98709.91;105536;1254;96613;-73
2024/02/25 08:23:16;;;;;;;6.20;4.10;;;;;;;10.06;70.98;98712.27;105427;1255;107359;-73
2024/02/25 08:25:44;;;;;;;5.10;3.50;;;;;;;10.11;70.95;98710.27;105393;1254;97231;-72
2024/02/25 08:28:12;;;;;;;6.30;4.00;;;;;;;10.13;70.96;98707.23;105709;1253;97787;-73
2024/02/25 08:30:40;;;;;;;5.40;3.70;;;;;;;10.15;70.90;98704.82;105379;1256;108602;-73
2024/02/25 08:33:08;;;;;;;6.20;3.80;;;;;;;10.19;70.92;98703.75;105185;1254;97833;-75
2024/02/25 08:35:36;;;;;;;7.10;4.40;;;;;;;10.23;71.01;98701.68;105370;1256;108403;-71
2024/02/25 08:38:04;;;;;;;6.00;3.90;;;;;;;10.28;70.98;98696.93;105847;1256;96604;-72
2024/02/25 08:40:32;;;;;;;5.40;3.60;;;;;;;10.36;71.01;98683.37;105341;1257;96700;-73
2024/02/25 08:43:00;;;;;;;6.10;3.80;;;;;;;10.42;70.87;98675.48;105478;1254;109609;-73
2024/02/25 08:45:28;;;;;;;5.60;4.20;;;;;;;10.45;70.92;98669.56;105849;1253;97989;-73
2024/02/25 08:47:56;;;;;;;5.40;3.90;;;;;;;10.47;70.95;98669.30;105427;1256;108239;-72
2024/02/25 08:50:24;;;;;;;6.40;4.20;;;;;;;10.46;70.97;98663.84;105446;1253;96590;-73
2024/02/25 08:52:52;;;;;;;4.70;3.10;;;;;;;10.49;70.91;98656.15;105794;1256;96630;-73
2024/02/25 08:55:19;;;;;;;5.70;3.40;;;;;;;10.52;70.91;98650.96;105947;1254;109863;-73
2024/02/25 08:57:47;;;;;;;5.90;3.80;;;;;;;10.54;70.98;98652.59;105649;1257;97559;-72
2024/02/25 09:00:15;;;;;;;5.20;3.50;;;;;;;10.56;70.88;98650.98;105609;1257;106040;-72
2024/02/25 09:02:44;;;;;;;6.50;3.50;;;;;;;10.58;70.94;98649.41;105559;1257;96615;-74
2024/02/25 09:05:11;;;;;;;4.40;2.90;;;;;;;10.63;70.96;98655.78;105609;1256;96533;-72
2024/02/25 09:07:40;;;;;;;5.90;3.60;;;;;;;10.67;70.95;98658.77;105351;1256;109955;-73
2024/02/25 09:10:12;;;;;;;5.80;3.70;;;;;;;10.73;70.98;98665.80;105335;1256;97821;-72
2024/02/25 09:12:40;;;;;;;5.00;3.60;;;;;;;10.78;70.97;98662.77;105367;1264;106014;-74
2024/02/25 09:15:08;;;;;;;5.80;4.00;;;;;;;10.78;70.79;98668.03;105421;1259;96758;-72
2024/02/25 09:17:36;;;;;;;5.10;4.00;;;;;;;10.80;70.90;98670.97;105544;1256;97236;-74
2024/02/25 09:20:05;;;;;;;4.30;3.30;;;;;;;10.80;70.91;98662.92;105727;1256;109915;-74
2024/02/25 09:22:32;;;;;;;3.90;2.80;;;;;;;10.81;70.95;98661.40;105441;1253;96671;-73
2024/02/25 09:25:01;;;;;;;5.90;3.80;;;;;;;10.84;70.85;98655.73;105680;1256;107224;-73
2024/02/25 09:27:28;;;;;;;6.20;3.40;;;;;;;10.87;70.94;98657.90;105466;1256;97480;-72
2024/02/25 09:29:56;;;;;;;6.10;2.90;;;;;;;10.95;70.91;98661.19;105486;1256;97421;-73
2024/02/25 09:32:28;;;;;;;3.80;2.90;;;;;;;11.03;70.90;98657.24;105676;1255;109881;-73
2024/02/25 09:34:56;;;;;;;4.70;3.10;;;;;;;11.08;70.93;98654.69;105711;1253;97810;-73
2024/02/25 09:37:24;;;;;;;4.10;2.80;;;;;;;11.14;70.95;98659.02;105613;1257;107575;-72
2024/02/25 09:39:52;;;;;;;5.90;3.40;;;;;;;11.19;70.82;98654.84;105683;1256;97876;-73
2024/02/25 09:42:22;;;;;;;4.80;3.00;;;;;;;11.24;70.81;98650.67;105339;1253;96517;-72
2024/02/25 09:44:56;;;;;;;5.00;3.20;;;;;;;11.28;70.65;98650.37;105598;1253;109965;-72
2024/02/25 09:47:25;;;;;;;4.70;2.60;;;;;;;11.31;70.73;98648.72;105365;1257;97817;-72
2024/02/25 09:49:53;;;;;;;4.50;2.90;;;;;;;11.36;70.73;98653.47;105678;1256;107626;-71
2024/02/25 09:52:22;;;;;;;3.60;2.40;;;;;;;11.43;70.76;98653.20;105700;1257;96580;-73
2024/02/25 09:54:50;;;;;;;4.40;2.50;;;;;;;11.50;70.70;98653.00;105584;1254;96648;-72
2024/02/25 09:57:18;;;;;;;5.40;3.30;;;;;;;11.57;70.66;98657.41;105748;1256;109683;-73
2024/02/25 09:59:46;;;;;;;3.70;2.90;;;;;;;11.65;70.65;98660.52;105411;1266;97503;-73
2024/02/25 10:02:15;;;;;;;4.60;2.60;;;;;;;11.69;70.62;98657.00;105722;1256;107645;-72
2024/02/25 10:04:43;;;;;;;4.60;2.70;;;;;;;11.74;70.57;98656.20;105245;1256;96679;-73
2024/02/25 10:07:14;;;;;;;4.10;2.60;;;;;;;11.81;70.55;98653.30;105529;1255;97464;-73
2024/02/25 10:09:43;;;;;;;3.30;2.50;;;;;;;11.89;70.44;98656.84;105465;1256;108289;-73
2024/02/25 10:12:11;;;;;;;4.40;2.60;;;;;;;11.95;70.31;98653.73;105723;1253;96963;-73
2024/02/25 10:14:40;;;;;;;3.90;2.90;;;;;;;12.00;70.38;98649.58;105626;1269;107692;-73
2024/02/25 10:17:09;;;;;;;3.70;2.60;;;;;;;12.03;70.24;98652.94;105738;1254;96578;-72
2024/02/25 10:19:37;;;;;;;3.70;2.80;;;;;;;12.02;70.10;98645.67;105686;1256;96589;-73
2024/02/25 10:22:10;;;;;;;3.30;2.40;;;;;;;11.99;70.03;98642.88;105740;1253;109890;-72
2024/02/25 10:24:40;;;;;;;4.40;2.90;;;;;;;11.98;70.05;98636.58;105651;1257;96966;-74
2024/02/25 10:27:15;;;;;;;3.90;2.80;;;;;;;11.95;69.94;98638.30;108763;1252;107432;-72
2024/02/25 10:29:53;;;;;;;3.20;2.70;;;;;;;11.92;69.88;98635.33;108535;1253;94361;-72
2024/02/25 10:32:31;;;;;;;4.10;2.60;;;;;;;11.91;69.83;98631.68;108773;1253;94234;-73
2024/02/25 10:35:01;;;;;;;3.90;2.40;;;;;;;11.91;69.79;98629.35;108666;1253;109645;-73
2024/02/25 10:37:29;;;;;;;4.00;2.60;;;;;;;11.91;69.85;98621.19;108807;1252;95479;-73
2024/02/25 10:40:06;;;;;;;3.10;2.00;;;;;;;11.90;69.76;98618.02;108671;1253;107104;-73
2024/02/25 10:42:44;;;;;;;3.90;2.50;;;;;;;11.90;69.59;98615.35;108661;1252;94267;-73
2024/02/25 10:45:15;;;;;;;3.50;2.30;;;;;;;11.89;69.50;98611.39;108686;1252;94272;-73
2024/02/25 10:47:46;;;;;;;3.10;2.00;;;;;;;11.90;69.64;98600.82;108761;1252;108306;-73
2024/02/25 10:50:19;;;;;;;3.90;2.50;;;;;;;11.92;69.58;98594.07;108756;1252;95851;-74
2024/02/25 10:52:50;;;;;;;3.70;2.50;;;;;;;11.95;69.61;98591.73;108787;1253;108003;-73
2024/02/25 10:55:19;;;;;;;4.50;2.70;;;;;;;11.99;69.49;98589.77;108693;1253;94622;-73
2024/02/25 10:57:47;;;;;;;3.40;2.40;;;;;;;12.04;69.53;98587.59;108787;1253;94738;-74
2024/02/25 11:03:37;;;;;;;4.00;2.40;;;;;;;12.08;69.39;98582.05;102525;1297;636056;-73
2024/02/25 11:06:07;;;;;;;4.20;2.60;;;;;;;12.08;69.45;98582.48;104988;1269;94932;-73
2024/02/25 11:08:41;;;;;;;4.10;2.50;;;;;;;12.08;69.44;98583.01;104962;1263;94305;-75
2024/02/25 11:11:10;;;;;;;3.20;2.30;;;;;;;12.09;69.45;98577.55;104962;1261;106534;-73
2024/02/25 11:13:42;;;;;;;3.50;2.20;;;;;;;12.11;69.21;98574.02;105002;1264;95485;-73
2024/02/25 11:16:11;;;;;;;4.10;2.60;;;;;;;12.12;69.33;98568.81;101776;1257;4217253;-72
2024/02/25 11:18:43;;;;;;;3.80;2.60;;;;;;;12.14;69.33;98567.16;104986;1263;95263;-73
2024/02/25 11:21:19;;;;;;;4.50;2.30;;;;;;;12.20;69.28;98567.38;105198;1257;94293;-73
2024/02/25 11:23:47;;;;;;;4.50;2.50;;;;;;;12.26;69.30;98564.20;105216;1264;107290;-72
2024/02/25 11:26:35;;;;;;;4.30;2.30;;;;;;;12.31;69.13;98559.13;105079;1271;95931;-74
2024/02/25 11:29:24;;;;;;;3.30;2.10;;;;;;;12.34;69.11;98553.52;105309;1261;107657;-74
2024/02/25 11:31:58;;;;;;;3.90;2.30;;;;;;;12.38;69.00;98547.48;105299;1263;95316;-74
2024/02/25 11:34:28;;;;;;;3.20;2.30;;;;;;;12.44;69.05;98544.15;105375;1260;95315;-73
2024/02/25 11:37:03;;;;;;;3.30;2.20;;;;;;;12.55;69.04;98539.07;105133;1263;108604;-73